Time;durP1;ratioP1;P1;durP2;ratioP2;P2;SDS_P1;SDS_P2;PMS_P1;PMS_P2;Temp;Humidity;BMP_temperature;BMP_pressure;BME280_temperature;BME280_humidity;BME280_pressure;Samples;Min_cycle;Max_cycle;Signal;HPM_P1;HPM_P2
2022/09/16 00:00:20;;;;;;;9.85;5.60;;;;;;;;;;5041201;28;20045;-69
2022/09/16 00:02:46;;;;;;;6.07;5.25;;;;;;;;;;5041714;28;20474;-69
2022/09/16 00:05:12;;;;;;;9.65;4.80;;;;;;;;;;5042332;28;20043;-69
2022/09/16 00:07:38;;;;;;;10.02;5.28;;;;;;;;;;5045849;28;20049;-69
2022/09/16 00:10:05;;;;;;;10.10;5.10;;;;;;;;;;5027659;28;20041;-69
2022/09/16 00:12:31;;;;;;;9.60;5.25;;;;;;;;;;5044631;28;20056;-70
2022/09/16 00:14:56;;;;;;;11.75;5.35;;;;;;;;;;5042019;28;20486;-70
2022/09/16 00:17:22;;;;;;;5.68;5.07;;;;;;;;;;5041020;28;20049;-69
2022/09/16 00:19:49;;;;;;;7.15;5.10;;;;;;;;;;5041602;28;20041;-70
2022/09/16 00:22:15;;;;;;;10.68;5.15;;;;;;;;;;5041184;28;20052;-69
2022/09/16 00:24:40;;;;;;;6.97;5.50;;;;;;;;;;5041067;28;20059;-70
2022/09/16 00:27:06;;;;;;;8.20;5.47;;;;;;;;;;5040958;28;20045;-70
2022/09/16 00:29:31;;;;;;;9.27;5.03;;;;;;;;;;5040906;28;20551;-69
2022/09/16 00:31:56;;;;;;;9.45;5.32;;;;;;;;;;5041062;28;20033;-70
2022/09/16 00:34:22;;;;;;;7.65;5.65;;;;;;;;;;5040732;28;20053;-70
2022/09/16 00:36:47;;;;;;;8.77;5.45;;;;;;;;;;5041190;28;20079;-69
2022/09/16 00:39:13;;;;;;;8.07;5.75;;;;;;;;;;5040740;28;20056;-69
2022/09/16 00:41:39;;;;;;;7.03;5.65;;;;;;;;;;5040589;28;20071;-69
2022/09/16 00:44:26;;;;;;;9.10;5.68;;;;;;;;;;5020194;28;20055;-70
2022/09/16 00:46:52;;;;;;;11.18;5.80;;;;;;;;;;5022450;28;20094;-68
2022/09/16 00:49:26;;;;;;;8.20;5.70;;;;;;;;;;5039459;28;20041;-71
2022/09/16 00:51:56;;;;;;;7.72;5.50;;;;;;;;;;5041205;28;20776;-69
2022/09/16 00:54:22;;;;;;;7.97;5.70;;;;;;;;;;5040700;28;20160;-69
2022/09/16 00:56:52;;;;;;;10.48;5.63;;;;;;;;;;5041067;28;20056;-69
2022/09/16 00:59:25;;;;;;;8.23;5.60;;;;;;;;;;5040136;28;20040;-68
2022/09/16 01:01:53;;;;;;;8.75;5.53;;;;;;;;;;5039186;28;20164;-70
2022/09/16 01:04:31;;;;;;;8.27;5.60;;;;;;;;;;5038129;28;20059;-69
2022/09/16 01:06:57;;;;;;;9.80;5.07;;;;;;;;;;5037250;28;21121;-72
2022/09/16 01:09:24;;;;;;;6.63;5.25;;;;;;;;;;5035534;28;20044;-72
2022/09/16 01:11:50;;;;;;;7.72;5.03;;;;;;;;;;5039380;28;20039;-71
2022/09/16 01:17:15;;;;;;;7.35;5.10;;;;;;;;;;5027238;28;20081;-68
2022/09/16 01:20:10;;;;;;;7.05;5.47;;;;;;;;;;5040506;28;20040;-69
2022/09/16 01:22:42;;;;;;;8.43;5.22;;;;;;;;;;5039338;28;20036;-69
2022/09/16 01:25:29;;;;;;;7.13;5.30;;;;;;;;;;5040363;28;20055;-70
2022/09/16 01:28:26;;;;;;;9.30;5.20;;;;;;;;;;5039394;28;20041;-70
2022/09/16 01:31:11;;;;;;;7.03;4.90;;;;;;;;;;5011067;28;20041;-70
2022/09/16 01:33:49;;;;;;;6.90;5.18;;;;;;;;;;5040059;28;20056;-71
2022/09/16 01:36:17;;;;;;;9.32;5.05;;;;;;;;;;5040354;28;20055;-71
2022/09/16 01:39:03;;;;;;;6.40;4.53;;;;;;;;;;5030425;28;20113;-69
2022/09/16 01:41:49;;;;;;;5.47;4.53;;;;;;;;;;5039752;28;20076;-68
2022/09/16 01:44:25;;;;;;;4.82;4.32;;;;;;;;;;5040633;28;20165;-69
2022/09/16 01:47:00;;;;;;;5.63;4.38;;;;;;;;;;5026958;28;20052;-68
2022/09/16 01:49:42;;;;;;;7.03;4.90;;;;;;;;;;5037226;28;20148;-71
2022/09/16 01:52:14;;;;;;;7.43;4.70;;;;;;;;;;5018697;28;20041;-68
2022/09/16 01:54:55;;;;;;;5.15;4.50;;;;;;;;;;5039396;28;20049;-68
2022/09/16 01:57:30;;;;;;;8.30;5.17;;;;;;;;;;5040262;28;20139;-68
2022/09/16 02:00:09;;;;;;;6.45;5.05;;;;;;;;;;5039342;28;20044;-69
2022/09/16 02:02:54;;;;;;;8.63;4.88;;;;;;;;;;5038966;28;20053;-67
2022/09/16 02:05:32;;;;;;;7.13;4.65;;;;;;;;;;5040230;28;20045;-68
2022/09/16 02:08:09;;;;;;;8.98;5.35;;;;;;;;;;5040269;28;20123;-68
2022/09/16 02:10:40;;;;;;;6.95;4.70;;;;;;;;;;5038506;28;20118;-70
2022/09/16 02:13:13;;;;;;;5.05;4.55;;;;;;;;;;5042636;28;20152;-70
2022/09/16 02:15:42;;;;;;;5.68;4.10;;;;;;;;;;5044616;28;20057;-71
2022/09/16 02:18:11;;;;;;;7.43;4.70;;;;;;;;;;5044331;28;20553;-70
2022/09/16 02:20:41;;;;;;;8.98;4.28;;;;;;;;;;5043074;28;20041;-70
2022/09/16 02:23:14;;;;;;;7.15;4.35;;;;;;;;;;5043393;28;20119;-69
2022/09/16 02:25:42;;;;;;;8.88;4.57;;;;;;;;;;5043788;28;20052;-70
2022/09/16 02:28:13;;;;;;;7.18;4.57;;;;;;;;;;5044053;28;20060;-70
2022/09/16 02:30:43;;;;;;;5.82;5.22;;;;;;;;;;5042908;28;20369;-71
2022/09/16 02:33:10;;;;;;;6.25;4.10;;;;;;;;;;5042598;28;20048;-70
2022/09/16 02:35:39;;;;;;;6.53;4.38;;;;;;;;;;5043361;28;20037;-71
2022/09/16 02:38:22;;;;;;;7.20;4.38;;;;;;;;;;5043276;28;20033;-71
2022/09/16 02:40:56;;;;;;;6.90;4.32;;;;;;;;;;5043233;28;20041;-70
2022/09/16 02:43:22;;;;;;;5.07;4.38;;;;;;;;;;5042898;28;20049;-69
2022/09/16 02:46:05;;;;;;;5.18;4.50;;;;;;;;;;5043562;28;20045;-70
2022/09/16 02:48:39;;;;;;;8.50;4.20;;;;;;;;;;5042464;28;20052;-71
2022/09/16 02:51:19;;;;;;;8.85;4.53;;;;;;;;;;5043297;28;20052;-70
2022/09/16 02:54:17;;;;;;;10.43;4.68;;;;;;;;;;5043382;28;20135;-70
2022/09/16 02:56:43;;;;;;;6.43;4.50;;;;;;;;;;5037031;28;20051;-69
2022/09/16 02:59:11;;;;;;;4.95;4.38;;;;;;;;;;5043052;28;20049;-71
2022/09/16 03:01:40;;;;;;;6.50;4.30;;;;;;;;;;5042593;28;20045;-72
2022/09/16 03:04:07;;;;;;;4.65;4.03;;;;;;;;;;5043225;28;20402;-70
2022/09/16 03:06:34;;;;;;;8.18;4.40;;;;;;;;;;5041718;28;20144;-70
2022/09/16 03:09:02;;;;;;;4.43;4.03;;;;;;;;;;5040174;28;20053;-72
2022/09/16 03:11:48;;;;;;;8.10;4.05;;;;;;;;;;5041415;28;20060;-72
2022/09/16 03:14:39;;;;;;;4.00;3.60;;;;;;;;;;5042976;28;20075;-68
2022/09/16 03:17:07;;;;;;;4.50;4.10;;;;;;;;;;5034004;28;20495;-71
2022/09/16 03:19:44;;;;;;;4.40;3.97;;;;;;;;;;5041785;28;20040;-68
2022/09/16 03:22:35;;;;;;;8.55;4.10;;;;;;;;;;5039920;28;20049;-68
2022/09/16 03:25:14;;;;;;;7.95;4.25;;;;;;;;;;5034180;28;20045;-70
2022/09/16 03:27:49;;;;;;;11.00;4.38;;;;;;;;;;5042441;28;20095;-68
2022/09/16 03:30:15;;;;;;;6.60;4.15;;;;;;;;;;5042747;28;20498;-69
2022/09/16 03:32:55;;;;;;;5.47;3.95;;;;;;;;;;5042125;28;20055;-68
2022/09/16 03:35:39;;;;;;;6.00;4.13;;;;;;;;;;5048083;28;20044;-70
2022/09/16 03:38:07;;;;;;;4.70;3.92;;;;;;;;;;5043103;28;20045;-69
2022/09/16 03:40:33;;;;;;;5.80;4.20;;;;;;;;;;5041492;28;20466;-70
2022/09/16 03:42:58;;;;;;;5.75;3.67;;;;;;;;;;5042358;28;20528;-69
2022/09/16 03:45:24;;;;;;;6.60;4.38;;;;;;;;;;5042508;28;20144;-69
2022/09/16 03:47:52;;;;;;;8.63;4.25;;;;;;;;;;5042536;28;20067;-69
2022/09/16 03:50:19;;;;;;;6.35;4.70;;;;;;;;;;5041675;28;21062;-68
2022/09/16 03:52:44;;;;;;;6.50;4.95;;;;;;;;;;5041362;28;20047;-69
2022/09/16 03:55:10;;;;;;;5.82;4.75;;;;;;;;;;5042382;28;20041;-69
2022/09/16 03:57:37;;;;;;;8.05;5.13;;;;;;;;;;5041687;28;20489;-70
2022/09/16 04:00:06;;;;;;;6.88;5.03;;;;;;;;;;5042045;28;20037;-70
2022/09/16 04:02:37;;;;;;;9.27;5.20;;;;;;;;;;5040582;28;20045;-71
2022/09/16 04:05:03;;;;;;;13.20;4.80;;;;;;;;;;5042006;28;20507;-70
2022/09/16 04:07:30;;;;;;;7.03;4.80;;;;;;;;;;5022327;28;20498;-70
2022/09/16 04:09:55;;;;;;;9.98;5.55;;;;;;;;;;5041704;28;20047;-69
2022/09/16 04:12:21;;;;;;;8.52;5.50;;;;;;;;;;5040327;28;20041;-70
2022/09/16 04:14:46;;;;;;;11.02;5.85;;;;;;;;;;5043077;28;20575;-71
2022/09/16 04:17:11;;;;;;;9.48;5.78;;;;;;;;;;5043538;28;20053;-71
2022/09/16 04:19:37;;;;;;;8.65;5.70;;;;;;;;;;5044052;28;20079;-71
2022/09/16 04:22:02;;;;;;;7.25;5.53;;;;;;;;;;5041983;28;20037;-71
2022/09/16 04:24:28;;;;;;;10.07;5.80;;;;;;;;;;5040017;28;20453;-71
2022/09/16 04:26:53;;;;;;;5.90;5.30;;;;;;;;;;5040777;28;20067;-71
2022/09/16 04:29:19;;;;;;;6.93;5.60;;;;;;;;;;5040327;28;20040;-71
2022/09/16 04:31:44;;;;;;;9.20;5.68;;;;;;;;;;5040808;28;20208;-71
2022/09/16 04:34:12;;;;;;;8.02;5.72;;;;;;;;;;5040483;28;20032;-70
2022/09/16 04:36:38;;;;;;;10.05;5.22;;;;;;;;;;5040393;28;20098;-71
2022/09/16 04:39:04;;;;;;;8.75;4.88;;;;;;;;;;5020110;28;20064;-70
2022/09/16 04:41:29;;;;;;;11.00;5.22;;;;;;;;;;5033112;28;20053;-70
2022/09/16 04:43:56;;;;;;;8.30;5.03;;;;;;;;;;5040366;28;20048;-70
2022/09/16 04:46:23;;;;;;;8.00;4.55;;;;;;;;;;5038781;28;20048;-70
2022/09/16 04:48:50;;;;;;;11.80;4.82;;;;;;;;;;5041123;28;20056;-70
2022/09/16 04:51:18;;;;;;;8.02;4.82;;;;;;;;;;5019929;28;20132;-70
2022/09/16 04:53:44;;;;;;;8.65;5.55;;;;;;;;;;5040929;28;20078;-70
2022/09/16 04:56:14;;;;;;;5.82;4.75;;;;;;;;;;5039328;28;20044;-71
2022/09/16 04:58:41;;;;;;;11.75;5.47;;;;;;;;;;5040786;28;20220;-71
2022/09/16 05:01:15;;;;;;;6.28;5.55;;;;;;;;;;5041755;28;20529;-70
2022/09/16 05:03:43;;;;;;;5.57;4.82;;;;;;;;;;5041682;28;20053;-70
2022/09/16 05:06:13;;;;;;;8.45;5.22;;;;;;;;;;5041057;28;20137;-72
2022/09/16 05:08:39;;;;;;;9.35;5.95;;;;;;;;;;5021448;28;20056;-71
2022/09/16 05:11:14;;;;;;;9.35;5.18;;;;;;;;;;5018164;28;20133;-70
2022/09/16 05:13:40;;;;;;;5.95;5.10;;;;;;;;;;5039339;28;20143;-69
2022/09/16 05:16:11;;;;;;;7.15;5.60;;;;;;;;;;5022322;28;20070;-69
2022/09/16 05:18:38;;;;;;;10.13;6.13;;;;;;;;;;5041369;28;20071;-70
2022/09/16 05:21:07;;;;;;;8.02;5.75;;;;;;;;;;5040868;28;20612;-70
2022/09/16 05:23:33;;;;;;;8.10;5.90;;;;;;;;;;5040748;28;20045;-70
2022/09/16 05:26:13;;;;;;;8.82;5.95;;;;;;;;;;5040847;28;20098;-70
2022/09/16 05:28:39;;;;;;;11.57;6.63;;;;;;;;;;5039595;28;20048;-70
2022/09/16 05:31:12;;;;;;;10.70;5.93;;;;;;;;;;5039450;28;20102;-70
2022/09/16 05:33:39;;;;;;;10.10;5.60;;;;;;;;;;5040527;28;20489;-71
2022/09/16 05:36:10;;;;;;;8.30;5.65;;;;;;;;;;5039792;28;20460;-70
2022/09/16 05:38:36;;;;;;;7.05;5.80;;;;;;;;;;5037831;28;20131;-70
2022/09/16 05:41:03;;;;;;;8.18;6.28;;;;;;;;;;5036975;28;20057;-70
2022/09/16 05:43:29;;;;;;;8.75;5.40;;;;;;;;;;5038207;28;20044;-69
2022/09/16 05:45:55;;;;;;;7.20;5.35;;;;;;;;;;5037875;28;20082;-69
2022/09/16 05:48:21;;;;;;;9.30;5.75;;;;;;;;;;5037064;28;20577;-70
2022/09/16 05:51:05;;;;;;;7.20;5.18;;;;;;;;;;5037757;28;20044;-69
2022/09/16 05:53:32;;;;;;;8.38;5.93;;;;;;;;;;5038292;28;20052;-69
2022/09/16 05:56:07;;;;;;;8.35;5.78;;;;;;;;;;5040047;28;20114;-69
2022/09/16 05:58:34;;;;;;;15.77;5.93;;;;;;;;;;5039109;28;20044;-68
2022/09/16 06:01:11;;;;;;;10.20;6.38;;;;;;;;;;5039322;28;20533;-68
2022/09/16 06:03:38;;;;;;;7.60;5.97;;;;;;;;;;5039600;28;20088;-70
2022/09/16 06:06:25;;;;;;;10.20;6.07;;;;;;;;;;5039569;28;20090;-69
2022/09/16 06:08:53;;;;;;;8.93;6.93;;;;;;;;;;5028510;28;20040;-69
2022/09/16 06:11:19;;;;;;;8.18;5.88;;;;;;;;;;5039058;28;20478;-70
2022/09/16 06:13:45;;;;;;;8.27;5.63;;;;;;;;;;5039929;28;20045;-69
2022/09/16 06:16:12;;;;;;;16.20;6.20;;;;;;;;;;5039824;28;20045;-66
2022/09/16 06:18:37;;;;;;;14.38;6.68;;;;;;;;;;5039422;28;20478;-68
2022/09/16 06:21:06;;;;;;;9.02;6.07;;;;;;;;;;5039261;28;20052;-68
2022/09/16 06:23:32;;;;;;;11.60;5.80;;;;;;;;;;5038553;28;20061;-67
2022/09/16 06:26:04;;;;;;;12.02;5.90;;;;;;;;;;5039420;28;20055;-68
2022/09/16 06:28:29;;;;;;;7.75;5.72;;;;;;;;;;5039419;28;20405;-67
2022/09/16 06:31:07;;;;;;;7.50;5.70;;;;;;;;;;5039496;28;20051;-69
2022/09/16 06:33:34;;;;;;;7.47;5.68;;;;;;;;;;5038599;28;20137;-69
2022/09/16 06:36:20;;;;;;;7.47;5.63;;;;;;;;;;5039447;28;20494;-70
2022/09/16 06:38:46;;;;;;;11.10;5.40;;;;;;;;;;5038877;28;20053;-70
2022/09/16 06:41:14;;;;;;;8.38;5.22;;;;;;;;;;5039008;28;20063;-69
2022/09/16 06:43:40;;;;;;;9.32;5.40;;;;;;;;;;5039718;28;20510;-70
2022/09/16 06:46:17;;;;;;;7.57;5.20;;;;;;;;;;5038764;28;20051;-71
2022/09/16 06:48:45;;;;;;;7.00;5.82;;;;;;;;;;5038855;28;20846;-71
2022/09/16 06:51:16;;;;;;;10.10;5.75;;;;;;;;;;5039363;28;20134;-71
2022/09/16 06:53:43;;;;;;;7.32;5.82;;;;;;;;;;5039505;28;20048;-70
2022/09/16 06:56:11;;;;;;;9.65;5.80;;;;;;;;;;5039171;28;20478;-70
2022/09/16 06:58:40;;;;;;;9.70;6.00;;;;;;;;;;5039604;28;20075;-70
2022/09/16 07:01:12;;;;;;;6.65;5.80;;;;;;;;;;5042946;28;20075;-70
2022/09/16 07:03:41;;;;;;;;;;;;;;;;;;5043365;28;20410;-69
2022/09/16 07:06:08;;;;;;;8.65;5.28;;;;;;;;;;5042550;28;19924;-70
2022/09/16 07:08:35;;;;;;;11.75;6.15;;;;;;;;;;5042248;28;20281;-69
2022/09/16 07:11:12;;;;;;;8.32;6.32;;;;;;;;;;5042857;28;20103;-69
2022/09/16 07:13:38;;;;;;;11.23;6.47;;;;;;;;;;5042826;28;20049;-69
2022/09/16 07:16:07;;;;;;;10.55;6.10;;;;;;;;;;5021389;28;20128;-69
2022/09/16 07:18:32;;;;;;;9.40;6.32;;;;;;;;;;5040639;28;20139;-69
2022/09/16 07:21:11;;;;;;;9.65;5.88;;;;;;;;;;5043209;28;20132;-69
2022/09/16 07:23:37;;;;;;;9.27;6.32;;;;;;;;;;5042104;28;20084;-70
2022/09/16 07:26:09;;;;;;;8.85;6.15;;;;;;;;;;5042502;28;20059;-70
2022/09/16 07:28:36;;;;;;;8.65;6.47;;;;;;;;;;5041038;28;20037;-71
2022/09/16 07:31:04;;;;;;;13.77;6.88;;;;;;;;;;5042987;28;20211;-71
2022/09/16 07:33:32;;;;;;;9.45;6.35;;;;;;;;;;5043202;28;20450;-70
2022/09/16 07:35:59;;;;;;;7.40;6.28;;;;;;;;;;5042551;28;20060;-71
2022/09/16 07:38:25;;;;;;;8.27;5.85;;;;;;;;;;5041592;28;20037;-70
2022/09/16 07:40:51;;;;;;;11.48;6.28;;;;;;;;;;5020774;28;20144;-70
2022/09/16 07:43:16;;;;;;;10.63;6.38;;;;;;;;;;5039522;28;20053;-70
2022/09/16 07:45:42;;;;;;;9.23;6.18;;;;;;;;;;5043452;28;20036;-70
2022/09/16 07:48:08;;;;;;;8.35;6.38;;;;;;;;;;5042904;28;20045;-70
2022/09/16 07:50:33;;;;;;;9.23;6.10;;;;;;;;;;5022338;28;20103;-70
2022/09/16 07:52:58;;;;;;;11.32;7.03;;;;;;;;;;5042453;28;20057;-71
2022/09/16 07:55:24;;;;;;;9.52;6.63;;;;;;;;;;5042239;28;20090;-70
2022/09/16 07:57:49;;;;;;;10.32;7.45;;;;;;;;;;5042446;28;20060;-69
2022/09/16 08:00:15;;;;;;;8.93;7.20;;;;;;;;;;5042221;28;20037;-69
2022/09/16 08:02:40;;;;;;;9.60;6.43;;;;;;;;;;5041563;28;22846;-69
2022/09/16 08:05:08;;;;;;;14.48;6.53;;;;;;;;;;5041719;28;20049;-70
2022/09/16 08:07:33;;;;;;;8.45;6.45;;;;;;;;;;5041959;28;20057;-70
2022/09/16 08:09:58;;;;;;;13.13;6.95;;;;;;;;;;5041717;28;20347;-69
2022/09/16 08:12:24;;;;;;;8.07;6.55;;;;;;;;;;5041128;28;20157;-69
2022/09/16 08:14:49;;;;;;;9.30;6.50;;;;;;;;;;5041662;28;20045;-68
2022/09/16 08:17:15;;;;;;;11.07;6.95;;;;;;;;;;5042242;28;20099;-70
2022/09/16 08:19:40;;;;;;;10.30;6.47;;;;;;;;;;5042807;28;20051;-69
2022/09/16 08:22:06;;;;;;;7.72;5.97;;;;;;;;;;5042917;28;20052;-70
2022/09/16 08:24:31;;;;;;;11.57;6.15;;;;;;;;;;5041991;28;20132;-69
2022/09/16 08:26:57;;;;;;;7.43;5.80;;;;;;;;;;5042369;28;20056;-69
2022/09/16 08:29:24;;;;;;;12.90;6.60;;;;;;;;;;5041595;28;20045;-69
2022/09/16 08:31:50;;;;;;;13.32;6.35;;;;;;;;;;5041756;28;20864;-70
2022/09/16 08:34:15;;;;;;;10.88;6.43;;;;;;;;;;5042507;28;20094;-69
2022/09/16 08:36:42;;;;;;;9.85;6.18;;;;;;;;;;5041276;28;20040;-70
2022/09/16 08:39:09;;;;;;;7.35;5.97;;;;;;;;;;5041954;28;20049;-71
2022/09/16 08:41:54;;;;;;;10.73;6.53;;;;;;;;;;5042608;28;20076;-70
2022/09/16 08:44:28;;;;;;;9.00;6.93;;;;;;;;;;5041515;28;20036;-70
2022/09/16 08:46:59;;;;;;;14.23;6.68;;;;;;;;;;5006203;28;20052;-71
2022/09/16 08:49:49;;;;;;;9.67;6.17;;;;;;;;;;5042195;28;20056;-69
2022/09/16 08:52:31;;;;;;;9.68;6.53;;;;;;;;;;5041983;28;20052;-71
2022/09/16 08:55:14;;;;;;;11.05;6.35;;;;;;;;;;5023435;28;20048;-69
2022/09/16 08:58:14;;;;;;;10.02;6.30;;;;;;;;;;5041092;28;20052;-69
2022/09/16 09:00:43;;;;;;;9.95;6.32;;;;;;;;;;5026847;28;20162;-68
2022/09/16 09:03:15;;;;;;;9.95;6.40;;;;;;;;;;5040487;28;20409;-67
2022/09/16 09:05:52;;;;;;;10.13;6.75;;;;;;;;;;5041064;28;20072;-68
2022/09/16 09:08:18;;;;;;;9.48;7.03;;;;;;;;;;5039834;28;20045;-69
2022/09/16 09:10:48;;;;;;;10.82;6.60;;;;;;;;;;5039050;28;20309;-68
2022/09/16 09:13:44;;;;;;;10.93;6.30;;;;;;;;;;5041564;28;20147;-69
2022/09/16 09:16:29;;;;;;;10.48;6.63;;;;;;;;;;5035879;28;20044;-69
2022/09/16 09:19:07;;;;;;;8.15;6.32;;;;;;;;;;5013232;28;20057;-69
2022/09/16 09:21:51;;;;;;;9.90;6.38;;;;;;;;;;5037857;28;20050;-69
2022/09/16 09:24:41;;;;;;;13.25;5.90;;;;;;;;;;5021706;28;20037;-69
2022/09/16 09:27:14;;;;;;;9.55;6.50;;;;;;;;;;5041315;28;20049;-69
2022/09/16 09:29:58;;;;;;;10.45;6.07;;;;;;;;;;5044256;28;20094;-70
2022/09/16 09:32:57;;;;;;;9.23;5.53;;;;;;;;;;5039188;28;20123;-69
2022/09/16 09:35:26;;;;;;;9.32;5.32;;;;;;;;;;5009762;28;20037;-69
2022/09/16 09:38:03;;;;;;;6.95;5.75;;;;;;;;;;5040103;28;20099;-67
2022/09/16 09:40:45;;;;;;;8.75;5.72;;;;;;;;;;5038135;28;20708;-68
2022/09/16 09:43:16;;;;;;;11.23;5.50;;;;;;;;;;5040587;28;20053;-69
2022/09/16 09:46:11;;;;;;;6.28;5.50;;;;;;;;;;5032296;28;20283;-68
2022/09/16 09:48:56;;;;;;;9.85;5.43;;;;;;;;;;5038812;28;20044;-69
2022/09/16 09:51:30;;;;;;;13.35;5.28;;;;;;;;;;5039307;28;20577;-68
2022/09/16 09:54:02;;;;;;;9.70;6.05;;;;;;;;;;5039937;28;20045;-67
2022/09/16 09:56:32;;;;;;;7.43;5.45;;;;;;;;;;5042116;28;20060;-69
2022/09/16 09:59:28;;;;;;;10.40;5.13;;;;;;;;;;5042803;28;20119;-68
2022/09/16 10:01:55;;;;;;;7.22;5.60;;;;;;;;;;5040978;28;20126;-68
2022/09/16 10:04:21;;;;;;;9.20;4.97;;;;;;;;;;5040714;28;20052;-68
2022/09/16 10:06:48;;;;;;;6.65;4.97;;;;;;;;;;5039170;28;20041;-68
2022/09/16 10:09:15;;;;;;;9.35;5.53;;;;;;;;;;5040428;28;20417;-70
2022/09/16 10:11:50;;;;;;;9.70;5.05;;;;;;;;;;5039140;28;20057;-69
2022/09/16 10:14:33;;;;;;;11.80;6.68;;;;;;;;;;5039668;28;20072;-69
2022/09/16 10:17:16;;;;;;;10.27;6.80;;;;;;;;;;5001462;28;20130;-68
2022/09/16 10:20:28;;;;;;;8.30;6.55;;;;;;;;;;5041873;28;20041;-68
2022/09/16 10:23:00;;;;;;;10.68;5.60;;;;;;;;;;4998972;28;20049;-68
2022/09/16 10:25:26;;;;;;;14.10;6.00;;;;;;;;;;5040544;28;20071;-68
2022/09/16 10:28:04;;;;;;;11.02;6.30;;;;;;;;;;5040648;28;20037;-68
2022/09/16 10:30:40;;;;;;;7.85;6.00;;;;;;;;;;5039265;28;20045;-68
2022/09/16 10:33:12;;;;;;;9.77;6.05;;;;;;;;;;5040780;28;20110;-70
2022/09/16 10:35:40;;;;;;;;;;;;;;;;;;5043041;28;20509;-68
2022/09/16 10:38:17;;;;;;;9.32;6.00;;;;;;;;;;5043209;28;19968;-70
2022/09/16 10:41:15;;;;;;;7.50;5.78;;;;;;;;;;5042437;28;20049;-68
2022/09/16 10:43:48;;;;;;;9.55;6.55;;;;;;;;;;5042535;28;20216;-69
2022/09/16 10:46:15;;;;;;;9.18;6.18;;;;;;;;;;5020963;28;20045;-70
2022/09/16 10:48:42;;;;;;;8.90;6.15;;;;;;;;;;5042143;28;20049;-70
2022/09/16 10:51:24;;;;;;;9.13;6.07;;;;;;;;;;5043205;28;20077;-71
2022/09/16 10:53:57;;;;;;;10.57;7.13;;;;;;;;;;5043768;28;20072;-71
2022/09/16 10:56:28;;;;;;;10.85;6.82;;;;;;;;;;5042076;28;20486;-75
2022/09/16 10:59:02;;;;;;;10.23;6.93;;;;;;;;;;5021609;28;20041;-70
2022/09/16 11:01:40;;;;;;;12.25;7.00;;;;;;;;;;5041869;28;20076;-70
2022/09/16 11:04:31;;;;;;;10.75;6.72;;;;;;;;;;5044901;28;20045;-70
2022/09/16 11:07:15;;;;;;;9.10;6.80;;;;;;;;;;4977842;28;20045;-70
2022/09/16 11:09:56;;;;;;;10.88;7.20;;;;;;;;;;5034535;28;20056;-70
2022/09/16 11:12:30;;;;;;;11.93;7.15;;;;;;;;;;5042551;28;20037;-71
2022/09/16 11:15:23;;;;;;;12.50;7.50;;;;;;;;;;5004280;28;20049;-70
2022/09/16 11:18:05;;;;;;;13.60;7.85;;;;;;;;;;5036725;28;20098;-71
2022/09/16 11:20:41;;;;;;;;;;;;;;;;;;5042720;28;20083;-70
2022/09/16 11:23:32;;;;;;;16.02;9.00;;;;;;;;;;5043522;28;19924;-70
2022/09/16 11:26:04;;;;;;;16.08;8.60;;;;;;;;;;5043113;28;20049;-70
2022/09/16 11:28:43;;;;;;;12.80;8.88;;;;;;;;;;5044319;28;20106;-71
2022/09/16 11:31:35;;;;;;;12.35;9.23;;;;;;;;;;5042175;28;20037;-70
2022/09/16 11:34:07;;;;;;;11.43;7.90;;;;;;;;;;5041610;28;20140;-70
2022/09/16 11:36:45;;;;;;;10.65;8.27;;;;;;;;;;5041443;28;20048;-71
2022/09/16 11:39:30;;;;;;;10.63;7.97;;;;;;;;;;5012726;28;20084;-70
2022/09/16 11:42:19;;;;;;;7.68;6.70;;;;;;;;;;5039352;28;20041;-70
2022/09/16 11:45:17;;;;;;;8.73;6.78;;;;;;;;;;5030025;28;20049;-69
2022/09/16 11:47:53;;;;;;;10.82;7.22;;;;;;;;;;5055291;28;20449;-71
2022/09/16 11:50:31;;;;;;;7.40;6.03;;;;;;;;;;5063275;28;20102;-71
2022/09/16 11:53:05;;;;;;;7.72;5.88;;;;;;;;;;5040916;28;20067;-71
2022/09/16 11:55:59;;;;;;;7.72;5.40;;;;;;;;;;5042851;28;20055;-71
2022/09/16 11:58:30;;;;;;;8.27;5.55;;;;;;;;;;5035000;28;20084;-72
2022/09/16 12:01:00;;;;;;;11.85;6.18;;;;;;;;;;5026769;28;20075;-72
2022/09/16 12:03:40;;;;;;;8.75;6.65;;;;;;;;;;5040224;28;20058;-70
2022/09/16 12:06:13;;;;;;;12.48;7.32;;;;;;;;;;5040792;28;20049;-71
2022/09/16 12:09:02;;;;;;;10.77;7.28;;;;;;;;;;5040177;28;20049;-71
2022/09/16 12:11:35;;;;;;;9.27;5.50;;;;;;;;;;5040426;28;20041;-70
2022/09/16 12:14:27;;;;;;;7.60;4.57;;;;;;;;;;5040797;28;20041;-70
2022/09/16 12:17:03;;;;;;;5.78;4.25;;;;;;;;;;5039656;28;20190;-70
2022/09/16 12:19:44;;;;;;;7.40;4.90;;;;;;;;;;5039606;28;20048;-70
2022/09/16 12:22:25;;;;;;;7.70;5.60;;;;;;;;;;5040645;28;20967;-70
2022/09/16 12:25:10;;;;;;;10.50;5.00;;;;;;;;;;5033767;28;20033;-69
2022/09/16 12:27:41;;;;;;;9.50;4.85;;;;;;;;;;5039995;28;20045;-69
2022/09/16 12:30:24;;;;;;;6.22;4.57;;;;;;;;;;5040968;28;20073;-69
2022/09/16 12:33:05;;;;;;;6.28;4.70;;;;;;;;;;5039696;28;20077;-70
2022/09/16 12:35:40;;;;;;;6.43;4.80;;;;;;;;;;5021100;28;20057;-69
2022/09/16 12:38:16;;;;;;;6.22;3.80;;;;;;;;;;5028327;28;20038;-71
2022/09/16 12:40:53;;;;;;;3.47;3.17;;;;;;;;;;5034675;28;20048;-70
2022/09/16 12:44:00;;;;;;;4.03;3.60;;;;;;;;;;5040141;28;20942;-70
2022/09/16 12:46:47;;;;;;;3.13;2.42;;;;;;;;;;5040328;28;20126;-72
2022/09/16 12:49:37;;;;;;;5.85;3.30;;;;;;;;;;5039979;28;20083;-71
2022/09/16 12:52:15;;;;;;;4.13;2.70;;;;;;;;;;5034925;28;20565;-71
2022/09/16 12:55:04;;;;;;;4.95;2.65;;;;;;;;;;5038992;28;20140;-70
2022/09/16 12:58:06;;;;;;;4.82;3.13;;;;;;;;;;5009018;28;20041;-71
2022/09/16 13:00:42;;;;;;;4.80;2.80;;;;;;;;;;5038161;28;20033;-71
2022/09/16 13:03:21;;;;;;;9.30;3.50;;;;;;;;;;5039196;28;20052;-72
2022/09/16 13:05:50;;;;;;;5.38;2.70;;;;;;;;;;5021616;28;20169;-71
2022/09/16 13:08:22;;;;;;;4.10;3.00;;;;;;;;;;5041192;28;20044;-71
2022/09/16 13:10:57;;;;;;;3.70;2.65;;;;;;;;;;5038775;28;20049;-72
2022/09/16 13:13:46;;;;;;;5.53;2.60;;;;;;;;;;5039731;28;20037;-70
2022/09/16 13:16:11;;;;;;;3.75;2.53;;;;;;;;;;5039770;28;20075;-71
2022/09/16 13:18:45;;;;;;;3.28;2.97;;;;;;;;;;5039271;28;20053;-71
2022/09/16 13:21:24;;;;;;;4.43;3.10;;;;;;;;;;5039566;28;20948;-71
2022/09/16 13:23:59;;;;;;;3.55;3.00;;;;;;;;;;5039756;28;20044;-71
2022/09/16 13:26:24;;;;;;;4.70;3.20;;;;;;;;;;5039437;28;20045;-73
2022/09/16 13:28:50;;;;;;;9.43;3.22;;;;;;;;;;5041175;28;20055;-72
2022/09/16 13:31:18;;;;;;;4.40;3.25;;;;;;;;;;5034771;28;20041;-69
2022/09/16 13:33:56;;;;;;;5.15;3.50;;;;;;;;;;5030046;28;20045;-69
2022/09/16 13:36:21;;;;;;;5.45;3.85;;;;;;;;;;5037585;28;20049;-69
2022/09/16 13:38:54;;;;;;;4.45;3.42;;;;;;;;;;5037044;28;20074;-69
2022/09/16 13:41:36;;;;;;;3.75;3.45;;;;;;;;;;5037311;28;20041;-71
2022/09/16 13:44:30;;;;;;;6.47;3.47;;;;;;;;;;5036994;28;20044;-70
2022/09/16 13:47:13;;;;;;;4.90;3.30;;;;;;;;;;5030706;28;20071;-71
2022/09/16 13:50:03;;;;;;;5.18;3.03;;;;;;;;;;5038105;28;20128;-71
2022/09/16 13:52:32;;;;;;;3.97;3.30;;;;;;;;;;5037784;28;20109;-71
2022/09/16 13:55:01;;;;;;;7.93;3.17;;;;;;;;;;5039919;28;20053;-71
2022/09/16 13:57:41;;;;;;;3.40;2.72;;;;;;;;;;5039277;28;20049;-72
2022/09/16 14:00:27;;;;;;;6.38;3.30;;;;;;;;;;5039891;28;20056;-72
2022/09/16 14:03:21;;;;;;;7.35;3.33;;;;;;;;;;5037414;28;20049;-71
2022/09/16 14:06:01;;;;;;;7.75;2.85;;;;;;;;;;5037852;28;20059;-71
2022/09/16 14:08:42;;;;;;;7.13;2.95;;;;;;;;;;5039408;28;20132;-72
2022/09/16 14:11:24;;;;;;;4.70;2.40;;;;;;;;;;5042777;28;20405;-71
2022/09/16 14:13:52;;;;;;;;;;;;;;;;;;5042605;28;20167;-72
2022/09/16 14:16:21;;;;;;;4.57;2.83;;;;;;;;;;5041109;28;19921;-71
2022/09/16 14:18:55;;;;;;;3.78;2.50;;;;;;;;;;5042192;28;20060;-71
2022/09/16 14:21:23;;;;;;;4.32;3.05;;;;;;;;;;5043335;28;20871;-70
2022/09/16 14:23:49;;;;;;;4.50;2.60;;;;;;;;;;5041925;28;20111;-72
2022/09/16 14:26:20;;;;;;;3.75;2.78;;;;;;;;;;5042461;28;20040;-72
2022/09/16 14:28:46;;;;;;;4.20;2.58;;;;;;;;;;5020827;28;20061;-71
2022/09/16 14:31:18;;;;;;;5.28;3.33;;;;;;;;;;5038918;28;20040;-71
2022/09/16 14:33:49;;;;;;;5.30;3.28;;;;;;;;;;5033506;28;20063;-69
2022/09/16 14:36:21;;;;;;;11.38;3.45;;;;;;;;;;5041307;28;20053;-70
2022/09/16 14:38:54;;;;;;;5.55;3.78;;;;;;;;;;5032328;28;20152;-70
2022/09/16 14:41:43;;;;;;;5.95;3.67;;;;;;;;;;5039912;28;20154;-71
2022/09/16 14:44:17;;;;;;;3.40;3.10;;;;;;;;;;5041901;28;20041;-71
2022/09/16 14:46:44;;;;;;;5.28;2.88;;;;;;;;;;5032017;28;20040;-71
2022/09/16 14:49:13;;;;;;;5.07;3.05;;;;;;;;;;5021440;28;20128;-71
2022/09/16 14:51:45;;;;;;;4.38;3.40;;;;;;;;;;5043184;28;20083;-71
2022/09/16 14:54:19;;;;;;;5.63;3.42;;;;;;;;;;5021702;28;20140;-71
2022/09/16 14:57:12;;;;;;;4.68;3.35;;;;;;;;;;5034611;28;20368;-71
2022/09/16 14:59:40;;;;;;;5.95;3.78;;;;;;;;;;5042542;28;20976;-71
2022/09/16 15:02:12;;;;;;;5.82;3.63;;;;;;;;;;5042332;28;20556;-70
2022/09/16 15:04:39;;;;;;;8.57;3.78;;;;;;;;;;5042200;28;20068;-70
2022/09/16 15:07:10;;;;;;;4.18;3.17;;;;;;;;;;5043188;28;20488;-70
2022/09/16 15:09:38;;;;;;;4.22;3.20;;;;;;;;;;5043134;28;20624;-69
2022/09/16 15:12:05;;;;;;;5.93;3.17;;;;;;;;;;5040782;28;20493;-69
2022/09/16 15:14:30;;;;;;;4.78;3.10;;;;;;;;;;5040364;28;20037;-72
2022/09/16 15:17:02;;;;;;;5.63;3.20;;;;;;;;;;5041213;28;20401;-72
2022/09/16 15:19:34;;;;;;;3.42;3.13;;;;;;;;;;5040290;28;20052;-72